ポートルイス の空港の天気 - METARとTAF

サー・シウサガル・ラングラーム国際空港 ( FIMP / MRU ) - モーリシャス ポートルイス
飛行場実況気象(Metar)
観測時間08/04 21:00 MUT (08/04 17:00 UTC)
風向・風速南南東 7m/s 瞬間風速0m/s
視程10km以上
天気現象周辺でしゅう雨
全天の8割程度の雲 雲底高度 490m
全天の4割程度の雲 雲底高度 1520m
気温21℃
湿度69%
気圧1026hPa
METARFIMP 041700Z 15014GKT 9999 VCSH BKN016 SCT050 21/15 Q1026
過去の天気等 Google飛行場航空写真 Wunderground天気予報

過去48時間のMETAR

飛行場予報(TAF)
発表時間: 8/04 21:05 MUT (8/04 17:05 UTC)
予報対象時間: 4日22時 MUT ~ 6日4時 MUT
風向・風速南東 8m/s 瞬間風速 15m/s
視程10km以上
全天の4割程度の雲 雲底高度 460m
4日23時 MUT ~ 5日4時 MUT に一時的に
視程7000m
天気現象弱いしゅう雨
少しの雲 雲底高度 300m
全天の8割程度の雲 雲底高度 430m
TAF FIMP 041705Z 0418/0600 14015G30KT 9999 SCT015
TEMPO 0419/0500 7000 -SHRA FEW010 BKN014